sensor_id;sensor_type;location;lat;lon;timestamp;P1;durP1;ratioP1;P2;durP2;ratioP2
37221;SDS011;23119;51.842;-2.230;2023-06-05T00:00:25;2.17;;;0.70;;
37221;SDS011;23119;51.842;-2.230;2023-06-05T00:02:53;1.75;;;0.80;;
37221;SDS011;23119;51.842;-2.230;2023-06-05T00:05:28;3.60;;;0.60;;
37221;SDS011;23119;51.842;-2.230;2023-06-05T00:07:54;3.03;;;0.70;;
37221;SDS011;23119;51.842;-2.230;2023-06-05T00:10:20;3.33;;;0.70;;
37221;SDS011;23119;51.842;-2.230;2023-06-05T00:12:46;1.90;;;0.70;;
37221;SDS011;23119;51.842;-2.230;2023-06-05T00:15:14;2.25;;;0.70;;
37221;SDS011;23119;51.842;-2.230;2023-06-05T00:17:40;1.85;;;0.80;;
37221;SDS011;23119;51.842;-2.230;2023-06-05T00:20:06;4.13;;;0.70;;
37221;SDS011;23119;51.842;-2.230;2023-06-05T00:22:41;2.25;;;0.60;;
37221;SDS011;23119;51.842;-2.230;2023-06-05T00:25:09;3.42;;;0.77;;
37221;SDS011;23119;51.842;-2.230;2023-06-05T00:27:35;1.60;;;0.80;;
37221;SDS011;23119;51.842;-2.230;2023-06-05T00:30:01;1.77;;;0.80;;
37221;SDS011;23119;51.842;-2.230;2023-06-05T00:32:27;3.65;;;1.10;;
37221;SDS011;23119;51.842;-2.230;2023-06-05T00:34:52;1.90;;;0.82;;
37221;SDS011;23119;51.842;-2.230;2023-06-05T00:37:19;2.70;;;0.70;;
37221;SDS011;23119;51.842;-2.230;2023-06-05T00:39:47;3.20;;;0.90;;
37221;SDS011;23119;51.842;-2.230;2023-06-05T00:42:13;2.17;;;0.82;;
37221;SDS011;23119;51.842;-2.230;2023-06-05T00:44:39;2.08;;;0.80;;
37221;SDS011;23119;51.842;-2.230;2023-06-05T00:47:05;4.55;;;0.80;;
37221;SDS011;23119;51.842;-2.230;2023-06-05T00:49:31;2.53;;;1.10;;
37221;SDS011;23119;51.842;-2.230;2023-06-05T00:51:57;4.35;;;0.93;;
37221;SDS011;23119;51.842;-2.230;2023-06-05T00:54:23;2.45;;;0.95;;
37221;SDS011;23119;51.842;-2.230;2023-06-05T00:56:49;3.05;;;1.00;;
37221;SDS011;23119;51.842;-2.230;2023-06-05T00:59:17;1.58;;;0.95;;
37221;SDS011;23119;51.842;-2.230;2023-06-05T01:01:43;1.60;;;0.80;;
37221;SDS011;23119;51.842;-2.230;2023-06-05T01:04:10;4.45;;;1.10;;
37221;SDS011;23119;51.842;-2.230;2023-06-05T01:06:36;2.70;;;1.00;;
37221;SDS011;23119;51.842;-2.230;2023-06-05T01:09:06;2.28;;;0.90;;
37221;SDS011;23119;51.842;-2.230;2023-06-05T01:14:14;3.65;;;1.10;;
37221;SDS011;23119;51.842;-2.230;2023-06-05T01:16:48;4.78;;;1.10;;
37221;SDS011;23119;51.842;-2.230;2023-06-05T01:19:18;2.13;;;0.80;;
37221;SDS011;23119;51.842;-2.230;2023-06-05T01:21:45;5.03;;;1.08;;
37221;SDS011;23119;51.842;-2.230;2023-06-05T01:24:12;2.78;;;1.00;;
37221;SDS011;23119;51.842;-2.230;2023-06-05T01:29:32;3.35;;;0.90;;
37221;SDS011;23119;51.842;-2.230;2023-06-05T01:32:15;3.42;;;1.05;;
37221;SDS011;23119;51.842;-2.230;2023-06-05T01:34:46;1.90;;;0.98;;
37221;SDS011;23119;51.842;-2.230;2023-06-05T01:37:15;2.45;;;1.02;;
37221;SDS011;23119;51.842;-2.230;2023-06-05T01:39:44;2.65;;;1.00;;
37221;SDS011;23119;51.842;-2.230;2023-06-05T01:42:12;2.95;;;1.10;;
37221;SDS011;23119;51.842;-2.230;2023-06-05T01:44:41;5.63;;;1.10;;
37221;SDS011;23119;51.842;-2.230;2023-06-05T01:47:11;5.13;;;1.40;;
37221;SDS011;23119;51.842;-2.230;2023-06-05T01:49:37;3.70;;;1.60;;
37221;SDS011;23119;51.842;-2.230;2023-06-05T01:52:03;3.67;;;1.35;;
37221;SDS011;23119;51.842;-2.230;2023-06-05T01:54:30;4.18;;;1.40;;
37221;SDS011;23119;51.842;-2.230;2023-06-05T01:56:57;4.18;;;1.10;;
37221;SDS011;23119;51.842;-2.230;2023-06-05T01:59:23;5.05;;;1.67;;
37221;SDS011;23119;51.842;-2.230;2023-06-05T02:01:49;2.33;;;1.20;;
37221;SDS011;23119;51.842;-2.230;2023-06-05T02:04:14;5.30;;;1.20;;
37221;SDS011;23119;51.842;-2.230;2023-06-05T02:06:42;5.38;;;1.30;;
37221;SDS011;23119;51.842;-2.230;2023-06-05T02:09:09;4.63;;;1.48;;
37221;SDS011;23119;51.842;-2.230;2023-06-05T02:11:36;5.28;;;1.17;;
37221;SDS011;23119;51.842;-2.230;2023-06-05T02:14:03;4.68;;;1.33;;
37221;SDS011;23119;51.842;-2.230;2023-06-05T02:16:32;1.90;;;1.35;;
37221;SDS011;23119;51.842;-2.230;2023-06-05T02:18:58;4.00;;;1.17;;
37221;SDS011;23119;51.842;-2.230;2023-06-05T02:21:37;4.20;;;1.30;;
37221;SDS011;23119;51.842;-2.230;2023-06-05T02:24:05;3.83;;;1.23;;
37221;SDS011;23119;51.842;-2.230;2023-06-05T02:26:31;2.92;;;1.30;;
37221;SDS011;23119;51.842;-2.230;2023-06-05T02:28:57;2.60;;;1.35;;
37221;SDS011;23119;51.842;-2.230;2023-06-05T02:31:23;4.10;;;1.10;;
37221;SDS011;23119;51.842;-2.230;2023-06-05T02:33:51;4.95;;;1.30;;
37221;SDS011;23119;51.842;-2.230;2023-06-05T02:36:17;2.38;;;1.15;;
37221;SDS011;23119;51.842;-2.230;2023-06-05T02:38:44;5.32;;;1.52;;
37221;SDS011;23119;51.842;-2.230;2023-06-05T02:41:10;5.13;;;1.20;;
37221;SDS011;23119;51.842;-2.230;2023-06-05T02:43:36;4.07;;;1.40;;
37221;SDS011;23119;51.842;-2.230;2023-06-05T02:46:01;7.07;;;2.03;;
37221;SDS011;23119;51.842;-2.230;2023-06-05T02:48:27;8.98;;;2.28;;
37221;SDS011;23119;51.842;-2.230;2023-06-05T02:50:53;5.28;;;2.40;;
37221;SDS011;23119;51.842;-2.230;2023-06-05T02:53:18;9.07;;;2.20;;
37221;SDS011;23119;51.842;-2.230;2023-06-05T02:55:45;3.70;;;1.63;;
37221;SDS011;23119;51.842;-2.230;2023-06-05T02:58:11;5.65;;;1.92;;
37221;SDS011;23119;51.842;-2.230;2023-06-05T03:00:38;7.30;;;1.70;;
37221;SDS011;23119;51.842;-2.230;2023-06-05T03:03:05;6.93;;;2.55;;
37221;SDS011;23119;51.842;-2.230;2023-06-05T03:05:32;6.78;;;1.98;;
37221;SDS011;23119;51.842;-2.230;2023-06-05T03:07:58;3.97;;;1.13;;
37221;SDS011;23119;51.842;-2.230;2023-06-05T03:10:26;4.55;;;2.25;;
37221;SDS011;23119;51.842;-2.230;2023-06-05T03:12:52;4.05;;;1.80;;
37221;SDS011;23119;51.842;-2.230;2023-06-05T03:15:21;4.38;;;1.83;;
37221;SDS011;23119;51.842;-2.230;2023-06-05T03:17:46;5.90;;;2.15;;
37221;SDS011;23119;51.842;-2.230;2023-06-05T03:20:12;4.28;;;1.95;;
37221;SDS011;23119;51.842;-2.230;2023-06-05T03:22:44;4.80;;;3.05;;
37221;SDS011;23119;51.842;-2.230;2023-06-05T03:25:12;3.13;;;2.20;;
37221;SDS011;23119;51.842;-2.230;2023-06-05T03:27:40;4.53;;;2.28;;
37221;SDS011;23119;51.842;-2.230;2023-06-05T03:30:06;4.60;;;2.80;;
37221;SDS011;23119;51.842;-2.230;2023-06-05T03:32:36;6.10;;;2.88;;
37221;SDS011;23119;51.842;-2.230;2023-06-05T03:35:02;5.07;;;3.17;;
37221;SDS011;23119;51.842;-2.230;2023-06-05T03:37:27;5.38;;;2.85;;
37221;SDS011;23119;51.842;-2.230;2023-06-05T03:39:53;6.22;;;3.40;;
37221;SDS011;23119;51.842;-2.230;2023-06-05T03:42:19;6.85;;;3.75;;
37221;SDS011;23119;51.842;-2.230;2023-06-05T03:44:44;5.55;;;3.65;;
37221;SDS011;23119;51.842;-2.230;2023-06-05T03:47:10;9.52;;;3.80;;
37221;SDS011;23119;51.842;-2.230;2023-06-05T03:49:39;6.82;;;3.85;;
37221;SDS011;23119;51.842;-2.230;2023-06-05T03:52:10;6.10;;;4.32;;
37221;SDS011;23119;51.842;-2.230;2023-06-05T03:54:39;9.80;;;4.47;;
37221;SDS011;23119;51.842;-2.230;2023-06-05T03:57:07;8.30;;;5.00;;
37221;SDS011;23119;51.842;-2.230;2023-06-05T03:59:37;8.80;;;5.25;;
37221;SDS011;23119;51.842;-2.230;2023-06-05T04:02:03;6.60;;;4.72;;
37221;SDS011;23119;51.842;-2.230;2023-06-05T04:04:29;10.55;;;5.38;;
37221;SDS011;23119;51.842;-2.230;2023-06-05T04:06:55;9.32;;;5.15;;
37221;SDS011;23119;51.842;-2.230;2023-06-05T04:09:21;7.50;;;4.88;;
37221;SDS011;23119;51.842;-2.230;2023-06-05T04:11:47;5.95;;;4.15;;
37221;SDS011;23119;51.842;-2.230;2023-06-05T04:14:14;7.55;;;4.53;;
37221;SDS011;23119;51.842;-2.230;2023-06-05T04:16:40;5.82;;;4.38;;
37221;SDS011;23119;51.842;-2.230;2023-06-05T04:19:11;7.20;;;4.32;;
37221;SDS011;23119;51.842;-2.230;2023-06-05T04:21:38;6.05;;;3.80;;
37221;SDS011;23119;51.842;-2.230;2023-06-05T04:24:04;6.07;;;3.95;;
37221;SDS011;23119;51.842;-2.230;2023-06-05T04:26:36;6.13;;;2.75;;
37221;SDS011;23119;51.842;-2.230;2023-06-05T04:29:03;5.68;;;1.70;;
37221;SDS011;23119;51.842;-2.230;2023-06-05T04:31:34;3.80;;;1.80;;
37221;SDS011;23119;51.842;-2.230;2023-06-05T04:34:00;5.57;;;2.75;;
37221;SDS011;23119;51.842;-2.230;2023-06-05T04:36:27;3.60;;;2.60;;
37221;SDS011;23119;51.842;-2.230;2023-06-05T04:38:53;2.97;;;2.33;;
37221;SDS011;23119;51.842;-2.230;2023-06-05T04:41:19;5.15;;;2.40;;
37221;SDS011;23119;51.842;-2.230;2023-06-05T04:43:49;4.82;;;2.35;;
37221;SDS011;23119;51.842;-2.230;2023-06-05T04:46:15;4.65;;;2.72;;
37221;SDS011;23119;51.842;-2.230;2023-06-05T04:48:41;4.47;;;2.42;;
37221;SDS011;23119;51.842;-2.230;2023-06-05T04:51:07;3.28;;;1.75;;
37221;SDS011;23119;51.842;-2.230;2023-06-05T04:53:32;6.57;;;2.58;;
37221;SDS011;23119;51.842;-2.230;2023-06-05T04:55:58;3.47;;;2.17;;
37221;SDS011;23119;51.842;-2.230;2023-06-05T04:58:27;5.70;;;1.52;;
37221;SDS011;23119;51.842;-2.230;2023-06-05T05:00:54;5.13;;;1.60;;
37221;SDS011;23119;51.842;-2.230;2023-06-05T05:03:30;3.90;;;1.80;;
37221;SDS011;23119;51.842;-2.230;2023-06-05T05:05:58;2.90;;;1.23;;
37221;SDS011;23119;51.842;-2.230;2023-06-05T05:08:24;5.25;;;1.45;;
37221;SDS011;23119;51.842;-2.230;2023-06-05T05:10:49;5.75;;;1.75;;
37221;SDS011;23119;51.842;-2.230;2023-06-05T05:13:18;3.50;;;1.60;;
37221;SDS011;23119;51.842;-2.230;2023-06-05T05:15:44;4.32;;;1.40;;
37221;SDS011;23119;51.842;-2.230;2023-06-05T05:18:10;2.05;;;1.10;;
37221;SDS011;23119;51.842;-2.230;2023-06-05T05:20:36;4.75;;;1.55;;
37221;SDS011;23119;51.842;-2.230;2023-06-05T05:23:03;6.03;;;1.40;;
37221;SDS011;23119;51.842;-2.230;2023-06-05T05:25:32;6.05;;;1.35;;
37221;SDS011;23119;51.842;-2.230;2023-06-05T05:27:58;3.67;;;2.40;;
37221;SDS011;23119;51.842;-2.230;2023-06-05T05:30:23;3.95;;;1.45;;
37221;SDS011;23119;51.842;-2.230;2023-06-05T05:32:51;3.42;;;1.33;;
37221;SDS011;23119;51.842;-2.230;2023-06-05T05:35:17;5.90;;;1.48;;
37221;SDS011;23119;51.842;-2.230;2023-06-05T05:37:43;3.95;;;1.35;;
37221;SDS011;23119;51.842;-2.230;2023-06-05T05:40:13;4.65;;;1.50;;
37221;SDS011;23119;51.842;-2.230;2023-06-05T05:42:39;3.33;;;1.33;;
37221;SDS011;23119;51.842;-2.230;2023-06-05T05:45:06;3.30;;;1.50;;
37221;SDS011;23119;51.842;-2.230;2023-06-05T05:47:32;2.88;;;1.73;;
37221;SDS011;23119;51.842;-2.230;2023-06-05T05:50:00;4.43;;;1.20;;
37221;SDS011;23119;51.842;-2.230;2023-06-05T05:52:26;3.80;;;1.20;;
37221;SDS011;23119;51.842;-2.230;2023-06-05T05:54:51;4.80;;;1.77;;
37221;SDS011;23119;51.842;-2.230;2023-06-05T05:57:17;3.35;;;1.10;;
37221;SDS011;23119;51.842;-2.230;2023-06-05T05:59:43;4.97;;;1.25;;
37221;SDS011;23119;51.842;-2.230;2023-06-05T06:02:14;2.53;;;1.07;;
37221;SDS011;23119;51.842;-2.230;2023-06-05T06:04:40;7.50;;;2.08;;
37221;SDS011;23119;51.842;-2.230;2023-06-05T06:07:09;5.40;;;1.50;;
37221;SDS011;23119;51.842;-2.230;2023-06-05T06:09:35;3.58;;;1.60;;
37221;SDS011;23119;51.842;-2.230;2023-06-05T06:12:01;3.15;;;1.75;;
37221;SDS011;23119;51.842;-2.230;2023-06-05T06:14:31;5.88;;;1.80;;
37221;SDS011;23119;51.842;-2.230;2023-06-05T06:17:00;4.57;;;2.17;;
37221;SDS011;23119;51.842;-2.230;2023-06-05T06:19:35;5.47;;;1.58;;
37221;SDS011;23119;51.842;-2.230;2023-06-05T06:22:00;5.57;;;1.98;;
37221;SDS011;23119;51.842;-2.230;2023-06-05T06:24:26;5.10;;;2.13;;
37221;SDS011;23119;51.842;-2.230;2023-06-05T06:26:52;6.00;;;1.88;;
37221;SDS011;23119;51.842;-2.230;2023-06-05T06:29:20;3.92;;;1.67;;
37221;SDS011;23119;51.842;-2.230;2023-06-05T06:31:49;6.05;;;1.85;;
37221;SDS011;23119;51.842;-2.230;2023-06-05T06:34:16;5.93;;;1.58;;
37221;SDS011;23119;51.842;-2.230;2023-06-05T06:36:42;4.47;;;1.80;;
37221;SDS011;23119;51.842;-2.230;2023-06-05T06:39:09;6.90;;;2.67;;
37221;SDS011;23119;51.842;-2.230;2023-06-05T06:41:38;10.45;;;2.72;;
37221;SDS011;23119;51.842;-2.230;2023-06-05T06:44:04;5.32;;;1.90;;
37221;SDS011;23119;51.842;-2.230;2023-06-05T06:46:30;6.25;;;1.67;;
37221;SDS011;23119;51.842;-2.230;2023-06-05T06:48:56;4.03;;;1.90;;
37221;SDS011;23119;51.842;-2.230;2023-06-05T06:51:22;5.95;;;1.77;;
37221;SDS011;23119;51.842;-2.230;2023-06-05T06:53:48;3.40;;;1.52;;
37221;SDS011;23119;51.842;-2.230;2023-06-05T06:56:15;4.10;;;1.80;;
37221;SDS011;23119;51.842;-2.230;2023-06-05T06:58:42;5.18;;;1.88;;
37221;SDS011;23119;51.842;-2.230;2023-06-05T07:01:13;5.40;;;1.88;;
37221;SDS011;23119;51.842;-2.230;2023-06-05T07:03:45;4.05;;;1.55;;
37221;SDS011;23119;51.842;-2.230;2023-06-05T07:06:11;3.20;;;1.77;;
37221;SDS011;23119;51.842;-2.230;2023-06-05T07:08:38;9.98;;;2.80;;
37221;SDS011;23119;51.842;-2.230;2023-06-05T07:11:04;5.20;;;1.83;;
37221;SDS011;23119;51.842;-2.230;2023-06-05T07:13:29;5.85;;;1.60;;
37221;SDS011;23119;51.842;-2.230;2023-06-05T07:15:55;2.78;;;1.55;;
37221;SDS011;23119;51.842;-2.230;2023-06-05T07:18:24;2.22;;;1.35;;
37221;SDS011;23119;51.842;-2.230;2023-06-05T07:20:49;5.03;;;1.63;;
37221;SDS011;23119;51.842;-2.230;2023-06-05T07:23:15;5.68;;;1.70;;
37221;SDS011;23119;51.842;-2.230;2023-06-05T07:25:43;4.47;;;1.83;;
37221;SDS011;23119;51.842;-2.230;2023-06-05T07:28:10;4.78;;;2.47;;
37221;SDS011;23119;51.842;-2.230;2023-06-05T07:30:40;3.08;;;1.27;;
37221;SDS011;23119;51.842;-2.230;2023-06-05T07:33:08;4.40;;;1.88;;
37221;SDS011;23119;51.842;-2.230;2023-06-05T07:35:37;4.65;;;1.75;;
37221;SDS011;23119;51.842;-2.230;2023-06-05T07:38:02;4.63;;;1.58;;
37221;SDS011;23119;51.842;-2.230;2023-06-05T07:40:28;4.30;;;1.92;;
37221;SDS011;23119;51.842;-2.230;2023-06-05T07:42:58;4.15;;;1.35;;
37221;SDS011;23119;51.842;-2.230;2023-06-05T07:45:24;3.67;;;1.83;;
37221;SDS011;23119;51.842;-2.230;2023-06-05T07:47:50;4.93;;;2.25;;
37221;SDS011;23119;51.842;-2.230;2023-06-05T07:50:16;6.38;;;1.60;;
37221;SDS011;23119;51.842;-2.230;2023-06-05T07:52:41;7.07;;;1.98;;
37221;SDS011;23119;51.842;-2.230;2023-06-05T07:55:07;3.53;;;2.28;;
37221;SDS011;23119;51.842;-2.230;2023-06-05T07:57:33;7.75;;;1.67;;
37221;SDS011;23119;51.842;-2.230;2023-06-05T07:59:59;4.15;;;1.42;;
37221;SDS011;23119;51.842;-2.230;2023-06-05T08:02:25;5.00;;;1.75;;
37221;SDS011;23119;51.842;-2.230;2023-06-05T08:04:50;8.20;;;2.03;;
37221;SDS011;23119;51.842;-2.230;2023-06-05T08:07:16;3.33;;;1.70;;
37221;SDS011;23119;51.842;-2.230;2023-06-05T08:09:42;6.57;;;1.83;;
37221;SDS011;23119;51.842;-2.230;2023-06-05T08:12:08;4.50;;;1.83;;
37221;SDS011;23119;51.842;-2.230;2023-06-05T08:14:36;5.63;;;2.42;;
37221;SDS011;23119;51.842;-2.230;2023-06-05T08:17:06;4.75;;;1.67;;
37221;SDS011;23119;51.842;-2.230;2023-06-05T08:19:31;4.43;;;2.00;;
37221;SDS011;23119;51.842;-2.230;2023-06-05T08:21:59;5.32;;;1.48;;
37221;SDS011;23119;51.842;-2.230;2023-06-05T08:24:26;5.32;;;1.63;;
37221;SDS011;23119;51.842;-2.230;2023-06-05T08:26:53;5.93;;;1.60;;
37221;SDS011;23119;51.842;-2.230;2023-06-05T08:29:21;14.85;;;1.95;;
37221;SDS011;23119;51.842;-2.230;2023-06-05T08:31:47;3.88;;;1.98;;
37221;SDS011;23119;51.842;-2.230;2023-06-05T08:34:13;4.00;;;1.58;;
37221;SDS011;23119;51.842;-2.230;2023-06-05T08:36:39;3.30;;;2.00;;
37221;SDS011;23119;51.842;-2.230;2023-06-05T08:39:04;2.75;;;1.38;;
37221;SDS011;23119;51.842;-2.230;2023-06-05T08:41:30;6.30;;;1.60;;
37221;SDS011;23119;51.842;-2.230;2023-06-05T08:43:57;4.78;;;1.42;;
37221;SDS011;23119;51.842;-2.230;2023-06-05T08:46:23;3.22;;;1.27;;
37221;SDS011;23119;51.842;-2.230;2023-06-05T08:48:53;4.13;;;1.60;;
37221;SDS011;23119;51.842;-2.230;2023-06-05T08:51:22;2.70;;;1.05;;
37221;SDS011;23119;51.842;-2.230;2023-06-05T08:53:53;2.13;;;1.10;;
37221;SDS011;23119;51.842;-2.230;2023-06-05T08:56:22;4.65;;;1.45;;
37221;SDS011;23119;51.842;-2.230;2023-06-05T08:58:48;3.20;;;1.50;;
37221;SDS011;23119;51.842;-2.230;2023-06-05T09:01:15;3.53;;;1.20;;
37221;SDS011;23119;51.842;-2.230;2023-06-05T09:03:41;2.88;;;1.10;;
37221;SDS011;23119;51.842;-2.230;2023-06-05T09:06:10;2.88;;;1.42;;
37221;SDS011;23119;51.842;-2.230;2023-06-05T09:08:36;3.30;;;1.13;;
37221;SDS011;23119;51.842;-2.230;2023-06-05T09:13:50;2.90;;;1.27;;
37221;SDS011;23119;51.842;-2.230;2023-06-05T09:16:24;2.85;;;1.30;;
37221;SDS011;23119;51.842;-2.230;2023-06-05T09:19:07;3.42;;;1.50;;
37221;SDS011;23119;51.842;-2.230;2023-06-05T09:21:34;3.13;;;1.30;;
37221;SDS011;23119;51.842;-2.230;2023-06-05T09:26:45;3.47;;;1.60;;
37221;SDS011;23119;51.842;-2.230;2023-06-05T09:29:25;4.40;;;1.70;;
37221;SDS011;23119;51.842;-2.230;2023-06-05T09:31:56;5.75;;;1.65;;
37221;SDS011;23119;51.842;-2.230;2023-06-05T09:34:30;2.22;;;1.35;;
37221;SDS011;23119;51.842;-2.230;2023-06-05T09:37:06;3.17;;;1.23;;
37221;SDS011;23119;51.842;-2.230;2023-06-05T09:39:34;2.95;;;1.30;;
37221;SDS011;23119;51.842;-2.230;2023-06-05T09:42:04;8.50;;;1.42;;
37221;SDS011;23119;51.842;-2.230;2023-06-05T09:44:31;2.00;;;1.08;;
37221;SDS011;23119;51.842;-2.230;2023-06-05T09:46:59;2.67;;;1.00;;
37221;SDS011;23119;51.842;-2.230;2023-06-05T09:49:32;2.60;;;1.10;;
37221;SDS011;23119;51.842;-2.230;2023-06-05T09:52:13;3.33;;;1.10;;
37221;SDS011;23119;51.842;-2.230;2023-06-05T09:54:40;1.80;;;0.80;;
37221;SDS011;23119;51.842;-2.230;2023-06-05T09:57:10;4.43;;;1.35;;
37221;SDS011;23119;51.842;-2.230;2023-06-05T09:59:52;4.15;;;1.85;;
37221;SDS011;23119;51.842;-2.230;2023-06-05T10:02:20;5.68;;;2.13;;
37221;SDS011;23119;51.842;-2.230;2023-06-05T10:04:59;4.15;;;1.90;;
37221;SDS011;23119;51.842;-2.230;2023-06-05T10:07:29;4.60;;;2.00;;
37221;SDS011;23119;51.842;-2.230;2023-06-05T10:10:12;3.05;;;1.85;;
37221;SDS011;23119;51.842;-2.230;2023-06-05T10:12:38;4.78;;;1.58;;
37221;SDS011;23119;51.842;-2.230;2023-06-05T10:15:09;5.15;;;2.33;;
37221;SDS011;23119;51.842;-2.230;2023-06-05T10:17:35;2.13;;;1.33;;
37221;SDS011;23119;51.842;-2.230;2023-06-05T10:20:05;3.08;;;1.85;;
37221;SDS011;23119;51.842;-2.230;2023-06-05T10:22:36;4.05;;;1.92;;
37221;SDS011;23119;51.842;-2.230;2023-06-05T10:25:06;4.90;;;1.85;;
37221;SDS011;23119;51.842;-2.230;2023-06-05T10:32:43;1.75;;;0.63;;
37221;SDS011;23119;51.842;-2.230;2023-06-05T10:40:37;2.40;;;1.10;;
37221;SDS011;23119;51.842;-2.230;2023-06-05T10:45:54;1.88;;;1.30;;
37221;SDS011;23119;51.842;-2.230;2023-06-05T10:57:06;3.42;;;1.02;;
37221;SDS011;23119;51.842;-2.230;2023-06-05T10:59:39;1.55;;;0.80;;
37221;SDS011;23119;51.842;-2.230;2023-06-05T11:07:25;2.15;;;0.85;;
37221;SDS011;23119;51.842;-2.230;2023-06-05T11:15:11;2.25;;;0.77;;
37221;SDS011;23119;51.842;-2.230;2023-06-05T11:17:58;1.95;;;0.80;;
37221;SDS011;23119;51.842;-2.230;2023-06-05T11:20:59;1.85;;;1.05;;
37221;SDS011;23119;51.842;-2.230;2023-06-05T11:23:26;1.90;;;0.98;;
37221;SDS011;23119;51.842;-2.230;2023-06-05T11:25:56;3.67;;;0.90;;
37221;SDS011;23119;51.842;-2.230;2023-06-05T11:31:09;2.85;;;0.90;;
37221;SDS011;23119;51.842;-2.230;2023-06-05T11:33:37;2.28;;;0.90;;
37221;SDS011;23119;51.842;-2.230;2023-06-05T11:36:04;2.30;;;0.95;;
37221;SDS011;23119;51.842;-2.230;2023-06-05T11:38:36;1.92;;;0.75;;
37221;SDS011;23119;51.842;-2.230;2023-06-05T11:41:05;1.17;;;0.70;;
37221;SDS011;23119;51.842;-2.230;2023-06-05T11:43:41;2.10;;;0.70;;
37221;SDS011;23119;51.842;-2.230;2023-06-05T11:46:07;1.52;;;0.82;;
37221;SDS011;23119;51.842;-2.230;2023-06-05T11:48:35;1.52;;;0.70;;
37221;SDS011;23119;51.842;-2.230;2023-06-05T11:51:09;2.10;;;1.10;;
37221;SDS011;23119;51.842;-2.230;2023-06-05T11:53:43;3.17;;;0.80;;
37221;SDS011;23119;51.842;-2.230;2023-06-05T11:56:13;3.33;;;0.98;;
37221;SDS011;23119;51.842;-2.230;2023-06-05T11:58:41;1.98;;;0.70;;
37221;SDS011;23119;51.842;-2.230;2023-06-05T12:01:08;4.30;;;0.80;;
37221;SDS011;23119;51.842;-2.230;2023-06-05T12:03:48;4.63;;;1.10;;
37221;SDS011;23119;51.842;-2.230;2023-06-05T12:06:26;2.15;;;1.00;;
37221;SDS011;23119;51.842;-2.230;2023-06-05T12:08:56;1.77;;;1.17;;
37221;SDS011;23119;51.842;-2.230;2023-06-05T12:11:35;5.57;;;1.08;;
37221;SDS011;23119;51.842;-2.230;2023-06-05T12:14:02;1.88;;;0.80;;
37221;SDS011;23119;51.842;-2.230;2023-06-05T12:19:00;2.70;;;0.80;;
37221;SDS011;23119;51.842;-2.230;2023-06-05T12:21:27;1.77;;;0.88;;
37221;SDS011;23119;51.842;-2.230;2023-06-05T12:24:02;3.70;;;0.80;;
37221;SDS011;23119;51.842;-2.230;2023-06-05T12:26:30;4.95;;;1.13;;
37221;SDS011;23119;51.842;-2.230;2023-06-05T12:29:18;3.75;;;1.00;;
37221;SDS011;23119;51.842;-2.230;2023-06-05T12:31:45;3.10;;;1.25;;
37221;SDS011;23119;51.842;-2.230;2023-06-05T12:34:11;3.65;;;0.82;;
37221;SDS011;23119;51.842;-2.230;2023-06-05T12:36:40;2.13;;;1.00;;
37221;SDS011;23119;51.842;-2.230;2023-06-05T12:39:11;1.80;;;0.80;;
37221;SDS011;23119;51.842;-2.230;2023-06-05T12:41:37;2.00;;;0.90;;
37221;SDS011;23119;51.842;-2.230;2023-06-05T12:44:04;1.90;;;1.15;;
37221;SDS011;23119;51.842;-2.230;2023-06-05T12:46:31;1.88;;;1.13;;
37221;SDS011;23119;51.842;-2.230;2023-06-05T12:49:00;4.03;;;1.00;;
37221;SDS011;23119;51.842;-2.230;2023-06-05T12:51:30;5.00;;;1.10;;
37221;SDS011;23119;51.842;-2.230;2023-06-05T12:53:56;2.10;;;0.90;;
37221;SDS011;23119;51.842;-2.230;2023-06-05T12:56:22;2.67;;;0.88;;
37221;SDS011;23119;51.842;-2.230;2023-06-05T12:58:55;3.40;;;1.02;;
37221;SDS011;23119;51.842;-2.230;2023-06-05T13:01:24;2.83;;;1.00;;
37221;SDS011;23119;51.842;-2.230;2023-06-05T13:03:50;1.90;;;0.93;;
37221;SDS011;23119;51.842;-2.230;2023-06-05T13:06:17;3.42;;;1.10;;
37221;SDS011;23119;51.842;-2.230;2023-06-05T13:08:44;5.15;;;0.98;;
37221;SDS011;23119;51.842;-2.230;2023-06-05T13:11:12;1.83;;;0.85;;
37221;SDS011;23119;51.842;-2.230;2023-06-05T13:13:38;3.17;;;0.93;;
37221;SDS011;23119;51.842;-2.230;2023-06-05T13:16:05;2.47;;;1.20;;
37221;SDS011;23119;51.842;-2.230;2023-06-05T13:18:32;2.65;;;0.90;;
37221;SDS011;23119;51.842;-2.230;2023-06-05T13:20:58;2.47;;;0.90;;
37221;SDS011;23119;51.842;-2.230;2023-06-05T13:23:24;1.98;;;0.80;;
37221;SDS011;23119;51.842;-2.230;2023-06-05T13:25:50;1.60;;;1.00;;
37221;SDS011;23119;51.842;-2.230;2023-06-05T13:28:16;2.50;;;0.90;;
37221;SDS011;23119;51.842;-2.230;2023-06-05T13:30:42;1.92;;;0.98;;
37221;SDS011;23119;51.842;-2.230;2023-06-05T13:33:07;2.80;;;0.80;;
37221;SDS011;23119;51.842;-2.230;2023-06-05T13:35:33;4.57;;;0.95;;
37221;SDS011;23119;51.842;-2.230;2023-06-05T13:37:59;2.53;;;0.98;;
37221;SDS011;23119;51.842;-2.230;2023-06-05T13:40:28;1.92;;;0.82;;
37221;SDS011;23119;51.842;-2.230;2023-06-05T13:42:54;3.85;;;1.15;;
37221;SDS011;23119;51.842;-2.230;2023-06-05T13:45:20;5.82;;;1.00;;
37221;SDS011;23119;51.842;-2.230;2023-06-05T13:47:45;2.58;;;1.10;;
37221;SDS011;23119;51.842;-2.230;2023-06-05T13:50:12;2.42;;;0.95;;
37221;SDS011;23119;51.842;-2.230;2023-06-05T13:52:37;3.05;;;0.80;;
37221;SDS011;23119;51.842;-2.230;2023-06-05T13:55:06;3.47;;;1.20;;
37221;SDS011;23119;51.842;-2.230;2023-06-05T13:57:32;3.53;;;0.93;;
37221;SDS011;23119;51.842;-2.230;2023-06-05T13:59:57;2.80;;;0.82;;
37221;SDS011;23119;51.842;-2.230;2023-06-05T14:02:25;2.33;;;1.00;;
37221;SDS011;23119;51.842;-2.230;2023-06-05T14:04:51;1.80;;;0.93;;
37221;SDS011;23119;51.842;-2.230;2023-06-05T14:07:17;3.88;;;1.25;;
37221;SDS011;23119;51.842;-2.230;2023-06-05T14:09:43;4.35;;;0.98;;
37221;SDS011;23119;51.842;-2.230;2023-06-05T14:12:08;2.58;;;1.38;;
37221;SDS011;23119;51.842;-2.230;2023-06-05T14:14:35;2.78;;;1.08;;
37221;SDS011;23119;51.842;-2.230;2023-06-05T14:17:01;2.70;;;1.10;;
37221;SDS011;23119;51.842;-2.230;2023-06-05T14:19:29;3.40;;;1.20;;
37221;SDS011;23119;51.842;-2.230;2023-06-05T14:21:55;1.65;;;0.77;;
37221;SDS011;23119;51.842;-2.230;2023-06-05T14:24:23;6.43;;;1.30;;
37221;SDS011;23119;51.842;-2.230;2023-06-05T14:26:49;2.75;;;0.98;;
37221;SDS011;23119;51.842;-2.230;2023-06-05T14:29:15;3.35;;;1.10;;
37221;SDS011;23119;51.842;-2.230;2023-06-05T14:31:43;1.75;;;1.00;;
37221;SDS011;23119;51.842;-2.230;2023-06-05T14:34:09;2.22;;;1.15;;
37221;SDS011;23119;51.842;-2.230;2023-06-05T14:36:35;3.45;;;1.13;;
37221;SDS011;23119;51.842;-2.230;2023-06-05T14:39:01;4.47;;;1.30;;
37221;SDS011;23119;51.842;-2.230;2023-06-05T14:41:31;4.18;;;1.20;;
37221;SDS011;23119;51.842;-2.230;2023-06-05T14:43:59;3.13;;;1.45;;
37221;SDS011;23119;51.842;-2.230;2023-06-05T14:46:24;3.30;;;1.10;;
37221;SDS011;23119;51.842;-2.230;2023-06-05T14:48:50;1.70;;;1.08;;
37221;SDS011;23119;51.842;-2.230;2023-06-05T14:51:16;3.03;;;0.73;;
37221;SDS011;23119;51.842;-2.230;2023-06-05T14:53:42;3.90;;;1.40;;
37221;SDS011;23119;51.842;-2.230;2023-06-05T14:56:10;4.75;;;1.10;;
37221;SDS011;23119;51.842;-2.230;2023-06-05T14:58:38;3.90;;;1.30;;
37221;SDS011;23119;51.842;-2.230;2023-06-05T15:01:04;7.82;;;3.67;;
37221;SDS011;23119;51.842;-2.230;2023-06-05T15:03:30;4.07;;;1.30;;
37221;SDS011;23119;51.842;-2.230;2023-06-05T15:05:58;3.38;;;1.17;;
37221;SDS011;23119;51.842;-2.230;2023-06-05T15:08:24;3.03;;;1.13;;
37221;SDS011;23119;51.842;-2.230;2023-06-05T15:10:50;2.42;;;1.10;;
37221;SDS011;23119;51.842;-2.230;2023-06-05T15:13:15;5.80;;;1.02;;
37221;SDS011;23119;51.842;-2.230;2023-06-05T15:15:42;5.60;;;0.98;;
37221;SDS011;23119;51.842;-2.230;2023-06-05T15:18:10;2.03;;;0.90;;
37221;SDS011;23119;51.842;-2.230;2023-06-05T15:20:36;4.47;;;1.33;;
37221;SDS011;23119;51.842;-2.230;2023-06-05T15:23:01;3.05;;;1.40;;
37221;SDS011;23119;51.842;-2.230;2023-06-05T15:25:27;2.63;;;1.17;;